createdAt,value
2022-10-23T00:01:45.375Z,4.85
2022-10-23T00:04:19.996Z,4.95
2022-10-23T00:06:47.878Z,4.72
2022-10-23T00:09:17.640Z,5.18
2022-10-23T00:11:47.950Z,3.90
2022-10-23T00:14:16.202Z,5.03
2022-10-23T00:16:43.650Z,5.32
2022-10-23T00:19:10.985Z,5.20
2022-10-23T00:21:40.225Z,4.72
2022-10-23T00:26:44.550Z,4.55
2022-10-23T00:29:14.659Z,4.45
2022-10-23T00:31:41.546Z,4.90
2022-10-23T00:34:08.768Z,5.30
2022-10-23T00:36:43.552Z,6.07
2022-10-23T00:39:10.662Z,6.32
2022-10-23T00:41:37.523Z,5.10
2022-10-23T00:44:18.522Z,4.45
2022-10-23T00:46:46.291Z,4.25
2022-10-23T00:49:14.257Z,4.68
2022-10-23T00:51:56.502Z,4.20
2022-10-23T00:54:26.271Z,4.78
2022-10-23T00:56:56.761Z,3.95
2022-10-23T00:59:24.186Z,4.05
2022-10-23T01:01:51.202Z,3.78
2022-10-23T01:04:20.499Z,4.10
2022-10-23T01:07:09.095Z,3.95
2022-10-23T01:09:49.079Z,4.85
2022-10-23T01:12:35.637Z,5.82
2022-10-23T01:15:27.727Z,5.95
2022-10-23T01:17:57.458Z,4.72
2022-10-23T01:20:51.095Z,4.53
2022-10-23T01:24:25.246Z,4.70
2022-10-23T01:27:22.256Z,4.60
2022-10-23T01:29:59.400Z,4.55
2022-10-23T01:32:53.073Z,5.50
2022-10-23T01:35:26.342Z,4.95
2022-10-23T01:38:05.646Z,5.53
2022-10-23T01:40:38.017Z,4.38
2022-10-23T01:43:13.617Z,4.97
2022-10-23T01:46:23.297Z,5.50
2022-10-23T01:48:56.806Z,4.90
2022-10-23T01:51:26.417Z,4.93
2022-10-23T01:53:56.509Z,4.72
2022-10-23T01:56:29.479Z,4.25
2022-10-23T02:01:26.642Z,4.75
2022-10-23T02:03:54.724Z,4.68
2022-10-23T02:06:21.668Z,5.18
2022-10-23T02:08:48.672Z,5.57
2022-10-23T02:11:17.898Z,4.13
2022-10-23T02:14:04.189Z,4.45
2022-10-23T02:16:51.585Z,5.15
2022-10-23T02:19:28.610Z,5.97
2022-10-23T02:22:06.323Z,5.40
2022-10-23T02:24:49.872Z,5.10
2022-10-23T02:27:30.818Z,5.43
2022-10-23T02:30:05.738Z,4.68
2022-10-23T02:32:33.540Z,4.43
2022-10-23T02:35:00.449Z,5.68
2022-10-23T02:37:27.311Z,4.72
2022-10-23T02:39:54.515Z,4.50
2022-10-23T02:42:34.604Z,4.50
2022-10-23T02:45:01.617Z,4.47
2022-10-23T02:47:36.599Z,4.80
2022-10-23T02:50:18.465Z,4.28
2022-10-23T02:53:10.362Z,4.43
2022-10-23T02:55:49.458Z,4.70
2022-10-23T02:58:16.512Z,4.30
2022-10-23T03:00:47.502Z,4.78
2022-10-23T03:03:20.651Z,4.50
2022-10-23T03:08:14.966Z,4.88
2022-10-23T03:10:42.672Z,5.10
2022-10-23T03:13:10.500Z,5.03
2022-10-23T03:15:37.482Z,5.00
2022-10-23T03:18:04.517Z,4.95
2022-10-23T03:20:31.589Z,4.63
2022-10-23T03:23:01.360Z,4.55
2022-10-23T03:25:29.094Z,4.50
2022-10-23T03:27:56.182Z,4.68
2022-10-23T03:30:23.362Z,4.70
2022-10-23T03:32:50.357Z,3.45
2022-10-23T03:35:17.374Z,4.00
2022-10-23T03:37:44.363Z,4.88
2022-10-23T03:40:11.761Z,3.78
2022-10-23T03:42:38.571Z,4.15
2022-10-23T03:45:05.857Z,3.60
2022-10-23T03:47:35.294Z,4.05
2022-10-23T03:50:02.224Z,3.80
2022-10-23T03:52:29.000Z,4.60
2022-10-23T03:54:55.913Z,3.75
2022-10-23T03:57:27.631Z,4.13
2022-10-23T03:59:54.628Z,3.67
2022-10-23T04:02:21.721Z,4.00
2022-10-23T04:04:48.617Z,4.20
2022-10-23T04:07:15.713Z,3.80
2022-10-23T04:09:42.502Z,4.20
2022-10-23T04:12:09.615Z,4.20
2022-10-23T04:14:36.503Z,3.95
2022-10-23T04:17:03.415Z,4.10
2022-10-23T04:19:30.329Z,3.55
2022-10-23T04:21:57.273Z,4.05
2022-10-23T04:24:25.015Z,3.45
2022-10-23T04:26:52.542Z,3.75
2022-10-23T04:29:22.528Z,3.20
2022-10-23T04:31:49.477Z,3.50
2022-10-23T04:34:16.375Z,3.83
2022-10-23T04:36:43.300Z,3.25
2022-10-23T04:39:10.565Z,3.72
2022-10-23T04:41:39.015Z,3.58
2022-10-23T04:44:05.940Z,4.35
2022-10-23T04:46:32.948Z,3.90
2022-10-23T04:48:59.818Z,4.32
2022-10-23T04:51:26.689Z,3.95
2022-10-23T04:53:53.481Z,3.20
2022-10-23T04:56:20.356Z,3.38
2022-10-23T04:58:47.289Z,3.88
2022-10-23T05:01:14.351Z,3.53
2022-10-23T05:03:41.295Z,3.75
2022-10-23T05:06:08.189Z,4.70
2022-10-23T05:08:35.948Z,3.78
2022-10-23T05:11:02.956Z,4.57
2022-10-23T05:13:29.772Z,4.80
2022-10-23T05:15:59.230Z,4.20
2022-10-23T05:18:35.228Z,3.75
2022-10-23T05:21:21.944Z,3.45
2022-10-23T05:23:49.171Z,3.65
2022-10-23T05:26:16.027Z,3.38
2022-10-23T05:28:42.870Z,3.55
2022-10-23T05:31:09.881Z,3.45
2022-10-23T05:33:37.248Z,3.85
2022-10-23T05:36:04.430Z,4.13
2022-10-23T05:38:34.339Z,4.40
2022-10-23T05:41:01.199Z,3.45
2022-10-23T05:43:31.250Z,3.28
2022-10-23T05:45:58.748Z,3.90
2022-10-23T05:48:40.591Z,3.35
2022-10-23T05:51:09.734Z,3.53
2022-10-23T05:53:38.891Z,4.03
2022-10-23T05:56:15.786Z,3.58
2022-10-23T05:58:42.652Z,4.03
2022-10-23T06:01:11.322Z,3.35
2022-10-23T06:03:38.842Z,3.45
2022-10-23T06:06:08.807Z,3.47
2022-10-23T06:08:36.053Z,3.45
2022-10-23T06:11:10.657Z,4.88
2022-10-23T06:13:37.655Z,3.17
2022-10-23T06:16:12.035Z,3.70
2022-10-23T06:18:38.937Z,3.45
2022-10-23T06:21:06.072Z,4.00
2022-10-23T06:23:34.820Z,4.30
2022-10-23T06:26:01.959Z,3.97
2022-10-23T06:28:28.909Z,4.28
2022-10-23T06:30:55.712Z,4.95
2022-10-23T06:33:22.646Z,4.32
2022-10-23T06:35:49.500Z,3.70
2022-10-23T06:38:16.393Z,4.45
2022-10-23T06:40:45.591Z,4.18
2022-10-23T06:43:12.459Z,3.88
2022-10-23T06:45:39.886Z,4.80
2022-10-23T06:48:06.812Z,4.10
2022-10-23T06:50:33.606Z,4.07
2022-10-23T06:53:00.465Z,3.53
2022-10-23T06:55:27.313Z,3.90
2022-10-23T06:57:54.166Z,10.52
2022-10-23T07:00:21.662Z,18.17
2022-10-23T07:02:48.547Z,4.35
2022-10-23T07:05:15.555Z,4.20
2022-10-23T07:07:42.426Z,3.83
2022-10-23T07:10:09.577Z,3.05
2022-10-23T07:12:36.504Z,5.57
2022-10-23T07:15:03.454Z,6.97
2022-10-23T07:17:30.329Z,5.13
2022-10-23T07:19:57.125Z,3.28
2022-10-23T07:22:23.941Z,3.67
2022-10-23T07:24:50.808Z,3.80
2022-10-23T07:27:17.853Z,3.22
2022-10-23T07:29:44.705Z,2.95
2022-10-23T07:32:11.597Z,2.70
2022-10-23T07:34:38.532Z,2.25
2022-10-23T07:37:05.405Z,2.10
2022-10-23T07:39:32.253Z,2.92
2022-10-23T07:41:59.111Z,5.75
2022-10-23T07:44:27.763Z,3.85
2022-10-23T07:46:54.812Z,3.25
2022-10-23T07:49:21.571Z,2.67
2022-10-23T07:51:51.269Z,2.40
2022-10-23T07:54:18.762Z,2.75
2022-10-23T07:56:45.584Z,3.75
2022-10-23T07:59:13.344Z,2.83
2022-10-23T08:01:40.841Z,2.80
2022-10-23T08:04:08.795Z,2.50
2022-10-23T08:06:35.860Z,1.95
2022-10-23T08:09:06.208Z,1.58
2022-10-23T08:11:35.826Z,1.80
2022-10-23T08:14:05.924Z,2.13
2022-10-23T08:16:34.512Z,1.48
2022-10-23T08:19:01.658Z,1.60
2022-10-23T08:21:28.556Z,2.20
2022-10-23T08:23:56.977Z,1.90
2022-10-23T08:26:24.773Z,1.90
2022-10-23T08:28:52.738Z,2.20
2022-10-23T08:31:21.082Z,2.00
2022-10-23T08:36:21.882Z,2.17
2022-10-23T08:38:49.307Z,1.73
2022-10-23T08:41:28.037Z,2.60
2022-10-23T08:44:19.371Z,2.00
2022-10-23T08:46:50.053Z,2.03
2022-10-23T08:49:43.506Z,2.25
2022-10-23T08:55:32.648Z,1.63
2022-10-23T08:58:24.838Z,2.03
2022-10-23T09:00:52.041Z,2.15
2022-10-23T09:03:19.008Z,2.10
2022-10-23T09:05:57.462Z,1.90
2022-10-23T09:08:24.255Z,1.90
2022-10-23T09:11:12.848Z,1.52
2022-10-23T09:14:25.155Z,1.98
2022-10-23T09:17:09.751Z,1.30
2022-10-23T09:19:36.609Z,1.90
2022-10-23T09:22:03.442Z,1.58
2022-10-23T09:24:31.825Z,1.20
2022-10-23T09:27:00.546Z,1.70
2022-10-23T09:29:36.110Z,1.42
2022-10-23T09:32:05.863Z,1.40
2022-10-23T09:34:34.920Z,1.48
2022-10-23T09:37:04.703Z,1.77
2022-10-23T09:39:34.267Z,1.35
2022-10-23T09:42:02.611Z,1.20
2022-10-23T09:44:34.166Z,1.67
2022-10-23T09:47:11.360Z,1.42
2022-10-23T09:49:46.222Z,1.95
2022-10-23T09:52:13.113Z,1.50
2022-10-23T09:54:51.729Z,1.65
2022-10-23T09:57:24.024Z,1.85
2022-10-23T09:59:56.440Z,1.50
2022-10-23T10:02:34.987Z,1.10
2022-10-23T10:05:29.068Z,1.08
2022-10-23T10:08:45.070Z,1.70
2022-10-23T10:11:30.601Z,1.77
2022-10-23T10:14:24.492Z,1.33
2022-10-23T10:17:00.200Z,1.98
2022-10-23T10:19:53.886Z,1.92
2022-10-23T10:22:38.350Z,1.70
2022-10-23T10:25:26.182Z,1.70
2022-10-23T10:28:20.370Z,1.60
2022-10-23T10:31:05.819Z,1.23
2022-10-23T10:34:26.577Z,1.63
2022-10-23T10:36:56.171Z,1.42
2022-10-23T10:39:48.189Z,1.40
2022-10-23T10:42:28.007Z,1.55
2022-10-23T10:45:01.743Z,1.50
2022-10-23T10:47:37.029Z,2.20
2022-10-23T10:50:24.407Z,1.45
2022-10-23T10:53:26.340Z,1.83
2022-10-23T10:55:55.891Z,2.08
2022-10-23T10:58:45.766Z,1.80
2022-10-23T11:01:26.747Z,0.90
2022-10-23T11:04:05.867Z,1.05
2022-10-23T11:06:36.030Z,1.85
2022-10-23T11:09:20.546Z,1.40
2022-10-23T11:11:48.790Z,1.38
2022-10-23T11:14:21.889Z,1.63
2022-10-23T11:16:56.676Z,0.90
2022-10-23T11:19:50.898Z,1.25
2022-10-23T11:22:37.517Z,1.15
2022-10-23T11:25:13.177Z,1.50
2022-10-23T11:27:48.546Z,1.77
2022-10-23T11:30:36.965Z,1.60
2022-10-23T11:33:22.401Z,1.35
2022-10-23T11:36:06.971Z,1.20
2022-10-23T11:38:35.889Z,1.77
2022-10-23T11:41:26.788Z,1.30
2022-10-23T11:43:57.111Z,1.95
2022-10-23T11:46:25.434Z,1.52
2022-10-23T11:48:53.868Z,1.63
2022-10-23T11:51:40.644Z,1.60
2022-10-23T11:54:10.410Z,1.55
2022-10-23T11:57:03.293Z,2.25
2022-10-23T11:59:49.204Z,2.40
2022-10-23T12:02:38.428Z,1.50
2022-10-23T12:05:09.153Z,2.30
2022-10-23T12:07:40.755Z,1.73
2022-10-23T12:10:30.793Z,1.52
2022-10-23T12:12:59.973Z,1.48
2022-10-23T12:15:27.554Z,2.28
2022-10-23T12:17:56.104Z,1.90
2022-10-23T12:20:45.991Z,2.00
2022-10-23T12:23:19.164Z,1.92
2022-10-23T12:26:35.436Z,1.73
2022-10-23T12:29:23.325Z,1.25
2022-10-23T12:32:14.101Z,2.03
2022-10-23T12:34:47.057Z,1.90
2022-10-23T12:40:02.025Z,1.38
2022-10-23T12:42:29.909Z,1.25
2022-10-23T12:45:21.328Z,1.90
2022-10-23T12:47:49.421Z,1.60
2022-10-23T12:50:20.639Z,1.60
2022-10-23T12:53:03.280Z,1.75
2022-10-23T12:55:35.987Z,2.00
2022-10-23T13:00:31.138Z,1.17
2022-10-23T13:03:03.847Z,1.63
2022-10-23T13:05:32.422Z,1.55
2022-10-23T13:08:00.727Z,1.58
2022-10-23T13:10:27.946Z,2.22
2022-10-23T13:13:02.104Z,2.05
2022-10-23T13:15:39.262Z,1.90
2022-10-23T13:18:10.187Z,2.33
2022-10-23T13:20:57.884Z,1.85
2022-10-23T13:23:34.654Z,2.05
2022-10-23T13:26:07.170Z,1.73
2022-10-23T13:28:44.837Z,2.38
2022-10-23T13:31:12.384Z,2.05
2022-10-23T13:33:46.483Z,2.05
2022-10-23T13:36:16.738Z,1.88
2022-10-23T13:38:45.931Z,2.15
2022-10-23T13:41:21.561Z,1.95
2022-10-23T13:43:48.596Z,2.33
2022-10-23T13:46:17.149Z,1.58
2022-10-23T13:48:44.374Z,1.80
2022-10-23T13:51:15.301Z,2.20
2022-10-23T13:53:42.325Z,1.60
2022-10-23T13:56:11.300Z,2.22
2022-10-23T13:58:38.687Z,1.35
2022-10-23T14:01:06.537Z,1.80
2022-10-23T14:03:33.404Z,2.25
2022-10-23T14:06:01.399Z,1.40
2022-10-23T14:08:28.166Z,2.13
2022-10-23T14:10:55.064Z,1.30
2022-10-23T14:13:21.873Z,2.00
2022-10-23T14:15:54.157Z,1.85
2022-10-23T14:18:21.288Z,1.98
2022-10-23T14:20:48.179Z,2.30
2022-10-23T14:23:15.097Z,2.20
2022-10-23T14:25:41.929Z,2.17
2022-10-23T14:28:08.717Z,2.47
2022-10-23T14:30:38.562Z,2.35
2022-10-23T14:33:05.356Z,2.05
2022-10-23T14:35:32.165Z,2.15
2022-10-23T14:37:59.104Z,1.95
2022-10-23T14:40:26.495Z,2.22
2022-10-23T14:42:53.337Z,2.15
2022-10-23T14:45:20.207Z,2.10
2022-10-23T14:47:47.107Z,2.40
2022-10-23T14:50:14.383Z,2.05
2022-10-23T14:52:41.175Z,2.33
2022-10-23T14:55:08.541Z,2.63
2022-10-23T14:57:35.397Z,2.40
2022-10-23T15:00:02.266Z,3.10
2022-10-23T15:02:29.090Z,1.92
2022-10-23T15:04:55.931Z,1.85
2022-10-23T15:07:22.776Z,2.08
2022-10-23T15:09:51.989Z,1.83
2022-10-23T15:12:18.930Z,2.35
2022-10-23T15:14:45.799Z,2.15
2022-10-23T15:17:15.764Z,2.30
2022-10-23T15:19:42.975Z,1.88
2022-10-23T15:22:09.939Z,2.50
2022-10-23T15:24:36.834Z,1.90
2022-10-23T15:27:03.851Z,1.90
2022-10-23T15:29:30.948Z,2.30
2022-10-23T15:31:58.989Z,1.75
2022-10-23T15:34:28.003Z,2.63
2022-10-23T15:36:56.308Z,2.90
2022-10-23T15:39:25.551Z,2.17
2022-10-23T15:41:55.426Z,2.20
2022-10-23T15:44:24.529Z,2.08
2022-10-23T15:46:52.056Z,2.17
2022-10-23T15:49:19.320Z,2.58
2022-10-23T15:51:46.540Z,2.13
2022-10-23T15:54:16.674Z,2.35
2022-10-23T15:56:44.334Z,1.92
2022-10-23T15:59:11.229Z,2.72
2022-10-23T16:01:38.352Z,2.83
2022-10-23T16:04:05.792Z,1.85
2022-10-23T16:06:32.648Z,2.28
2022-10-23T16:08:59.597Z,2.55
2022-10-23T16:11:29.937Z,2.30
2022-10-23T16:13:57.793Z,2.22
2022-10-23T16:16:25.294Z,2.85
2022-10-23T16:18:52.288Z,3.40
2022-10-23T16:21:22.927Z,2.65
2022-10-23T16:23:50.567Z,2.97
2022-10-23T16:26:17.924Z,3.53
2022-10-23T16:28:47.161Z,2.65
2022-10-23T16:31:20.595Z,2.28
2022-10-23T16:33:48.608Z,2.67
2022-10-23T16:36:16.428Z,3.50
2022-10-23T16:38:43.311Z,2.88
2022-10-23T16:41:10.360Z,3.10
2022-10-23T16:43:37.234Z,3.60
2022-10-23T16:46:15.589Z,4.38
2022-10-23T16:48:42.830Z,4.50
2022-10-23T16:51:18.394Z,3.28
2022-10-23T16:53:46.052Z,3.40
2022-10-23T16:56:17.835Z,3.10
2022-10-23T16:58:45.365Z,3.53
2022-10-23T17:01:23.883Z,3.00
2022-10-23T17:03:52.487Z,2.47
2022-10-23T17:06:25.838Z,4.18
2022-10-23T17:08:53.159Z,2.60
2022-10-23T17:11:21.741Z,8.65
2022-10-23T17:13:59.519Z,2.65
2022-10-23T17:16:37.206Z,4.10
2022-10-23T17:19:16.122Z,3.75
2022-10-23T17:21:54.194Z,2.88
2022-10-23T17:24:21.141Z,2.45
2022-10-23T17:26:48.581Z,3.30
2022-10-23T17:29:15.738Z,2.25
2022-10-23T17:31:45.171Z,2.65
2022-10-23T17:34:14.386Z,3.08
2022-10-23T17:36:45.025Z,2.67
2022-10-23T17:39:14.280Z,3.00
2022-10-23T17:41:42.195Z,3.15
2022-10-23T17:44:09.168Z,3.00
2022-10-23T17:46:36.052Z,3.30
2022-10-23T17:49:04.180Z,3.25
2022-10-23T17:51:32.958Z,3.65
2022-10-23T17:54:11.041Z,3.38
2022-10-23T17:56:38.549Z,2.85
2022-10-23T17:59:09.965Z,3.40
2022-10-23T18:01:37.300Z,3.60
2022-10-23T18:04:06.430Z,3.55
2022-10-23T18:06:41.789Z,3.58
2022-10-23T18:09:08.605Z,4.07
2022-10-23T18:11:37.867Z,3.45
2022-10-23T18:14:06.263Z,3.58
2022-10-23T18:16:37.239Z,7.30
2022-10-23T18:19:04.748Z,6.25
2022-10-23T18:21:32.051Z,9.02
2022-10-23T18:24:00.281Z,5.50
2022-10-23T18:26:29.928Z,3.50
2022-10-23T18:28:58.512Z,7.07
2022-10-23T18:31:29.655Z,4.03
2022-10-23T18:34:04.380Z,4.43
2022-10-23T18:36:33.786Z,4.28
2022-10-23T18:39:00.756Z,3.92
2022-10-23T18:41:28.200Z,4.45
2022-10-23T18:43:55.443Z,4.28
2022-10-23T18:46:22.613Z,3.10
2022-10-23T18:48:50.892Z,3.35
2022-10-23T18:51:26.781Z,3.35
2022-10-23T18:53:53.787Z,3.42
2022-10-23T18:56:23.429Z,2.42
2022-10-23T18:58:58.566Z,2.13
2022-10-23T19:01:27.309Z,2.50
2022-10-23T19:06:27.719Z,2.80
2022-10-23T19:08:54.735Z,2.33
2022-10-23T19:11:23.515Z,2.45
2022-10-23T19:13:50.447Z,2.17
2022-10-23T19:16:23.758Z,1.80
2022-10-23T19:18:58.371Z,2.33
2022-10-23T19:21:31.448Z,1.70
2022-10-23T19:24:01.453Z,1.85
2022-10-23T19:26:30.690Z,1.65
2022-10-23T19:28:58.180Z,1.95
2022-10-23T19:31:26.465Z,2.20
2022-10-23T19:33:53.651Z,2.47
2022-10-23T19:36:23.565Z,1.85
2022-10-23T19:38:50.821Z,2.00
2022-10-23T19:41:18.926Z,1.90
2022-10-23T19:43:45.951Z,1.40
2022-10-23T19:46:12.890Z,2.40
2022-10-23T19:48:44.418Z,1.30
2022-10-23T19:51:12.955Z,1.38
2022-10-23T19:53:41.406Z,2.28
2022-10-23T19:56:10.007Z,1.30
2022-10-23T19:58:36.905Z,1.50
2022-10-23T20:01:12.424Z,1.60
2022-10-23T20:03:40.971Z,1.38
2022-10-23T20:06:15.554Z,1.73
2022-10-23T20:08:42.746Z,1.20
2022-10-23T20:11:10.498Z,2.17
2022-10-23T20:13:37.376Z,2.88
2022-10-23T20:16:04.483Z,3.03
2022-10-23T20:18:31.455Z,1.77
2022-10-23T20:21:02.388Z,1.20
2022-10-23T20:23:29.251Z,2.28
2022-10-23T20:26:04.287Z,1.35
2022-10-23T20:28:31.097Z,1.40
2022-10-23T20:30:57.999Z,1.98
2022-10-23T20:33:24.986Z,1.85
2022-10-23T20:35:52.867Z,2.80
2022-10-23T20:38:20.011Z,1.80
2022-10-23T20:40:46.980Z,1.88
2022-10-23T20:43:13.769Z,1.90
2022-10-23T20:45:40.654Z,3.60
2022-10-23T20:48:07.513Z,2.05
2022-10-23T20:50:35.146Z,2.13
2022-10-23T20:53:01.950Z,2.13
2022-10-23T20:55:28.759Z,1.73
2022-10-23T20:57:55.555Z,1.42
2022-10-23T21:00:22.424Z,2.15
2022-10-23T21:02:51.357Z,2.13
2022-10-23T21:05:19.301Z,1.77
2022-10-23T21:07:49.021Z,1.75
2022-10-23T21:10:15.962Z,1.40
2022-10-23T21:12:43.088Z,1.88
2022-10-23T21:15:10.521Z,1.85
2022-10-23T21:17:40.426Z,1.63
2022-10-23T21:20:07.566Z,2.42
2022-10-23T21:22:34.391Z,1.75
2022-10-23T21:25:01.714Z,1.67
2022-10-23T21:27:28.506Z,1.67
2022-10-23T21:29:55.313Z,2.28
2022-10-23T21:32:22.227Z,2.00
2022-10-23T21:34:49.047Z,2.50
2022-10-23T21:48:41.535Z,3.15
2022-10-23T21:58:32.550Z,3.17
2022-10-23T22:01:00.749Z,3.15
2022-10-23T22:04:07.322Z,2.58
2022-10-23T22:06:34.207Z,3.35
2022-10-23T22:09:11.979Z,3.17
2022-10-23T22:11:38.881Z,3.33
2022-10-23T22:14:05.789Z,3.47
2022-10-23T22:16:32.836Z,3.03
2022-10-23T22:18:59.664Z,3.00
2022-10-23T22:21:29.084Z,4.13
2022-10-23T22:23:57.443Z,2.95
2022-10-23T22:26:34.245Z,3.28
2022-10-23T22:29:04.154Z,2.95
2022-10-23T22:31:33.062Z,3.85
2022-10-23T22:34:52.429Z,3.67
2022-10-23T22:37:34.681Z,3.63
2022-10-23T22:40:04.791Z,3.38
2022-10-23T22:42:35.035Z,3.15
2022-10-23T22:45:02.143Z,3.85
2022-10-23T22:47:34.207Z,3.58
2022-10-23T22:50:01.028Z,5.28
2022-10-23T22:52:27.902Z,3.38
2022-10-23T22:54:56.911Z,2.83
2022-10-23T22:57:23.847Z,4.28
2022-10-23T22:59:50.688Z,3.55
2022-10-23T23:02:17.548Z,3.60
2022-10-23T23:04:44.427Z,4.00
2022-10-23T23:07:12.834Z,3.30
2022-10-23T23:09:41.723Z,3.78
2022-10-23T23:12:10.302Z,3.80
2022-10-23T23:14:37.473Z,3.17
2022-10-23T23:17:06.140Z,4.43
2022-10-23T23:19:33.190Z,3.47
2022-10-23T23:22:00.543Z,3.50
2022-10-23T23:24:27.551Z,3.40
2022-10-23T23:26:54.357Z,3.58
2022-10-23T23:29:21.690Z,4.43
2022-10-23T23:31:48.548Z,3.35
2022-10-23T23:34:15.370Z,3.55
2022-10-23T23:36:42.267Z,3.65
2022-10-23T23:39:10.117Z,3.00
2022-10-23T23:41:37.374Z,3.65
2022-10-23T23:44:04.416Z,3.22
2022-10-23T23:46:31.288Z,3.75
2022-10-23T23:48:58.085Z,3.53
2022-10-23T23:51:25.377Z,3.92
2022-10-23T23:53:53.455Z,3.80
2022-10-23T23:56:20.994Z,3.38
2022-10-23T23:58:47.756Z,3.53
